Time;durP1;ratioP1;P1;durP2;ratioP2;P2;SDS_P1;SDS_P2;PMS_P1;PMS_P2;Temp;Humidity;BMP_temperature;BMP_pressure;BME280_temperature;BME280_humidity;BME280_pressure;Samples;Min_cycle;Max_cycle;Signal;HPM_P1;HPM_P2
2022/07/10 00:00:17;;;;;;;0.50;0.50;;;12.30;99.90;;;;;;5035433;28;20277;-68
2022/07/10 00:02:43;;;;;;;0.50;0.50;;;12.20;99.90;;;;;;5035401;28;20669;-68
2022/07/10 00:05:10;;;;;;;0.50;0.50;;;12.10;99.90;;;;;;5035457;28;20243;-69
2022/07/10 00:07:36;;;;;;;0.50;0.50;;;12.10;99.90;;;;;;5037543;28;20534;-68
2022/07/10 00:10:03;;;;;;;0.50;0.50;;;12.10;99.90;;;;;;5055503;28;20556;-67
2022/07/10 00:12:29;;;;;;;0.40;0.40;;;12.20;99.90;;;;;;5055291;28;20330;-68
2022/07/10 00:14:54;;;;;;;0.50;0.50;;;12.20;99.90;;;;;;5055572;28;20276;-69
2022/07/10 00:17:20;;;;;;;0.50;0.50;;;12.20;99.90;;;;;;5055203;28;20201;-69
2022/07/10 00:19:46;;;;;;;0.50;0.50;;;12.20;99.90;;;;;;5055762;28;20193;-68
2022/07/10 00:22:12;;;;;;;0.50;0.50;;;12.10;99.90;;;;;;5055128;28;20224;-68
2022/07/10 00:24:38;;;;;;;0.50;0.50;;;12.10;99.90;;;;;;5055124;28;20565;-68
2022/07/10 00:27:04;;;;;;;0.50;0.50;;;12.10;99.90;;;;;;5021092;28;20200;-68
2022/07/10 00:29:29;;;;;;;0.50;0.50;;;12.10;99.90;;;;;;5016715;28;20656;-68
2022/07/10 00:31:55;;;;;;;0.50;0.50;;;12.10;99.90;;;;;;5035496;28;20248;-68
2022/07/10 00:34:21;;;;;;;0.50;0.50;;;12.10;99.90;;;;;;5035058;28;20206;-68
2022/07/10 00:36:46;;;;;;;0.50;0.50;;;12.00;99.90;;;;;;5035197;28;20194;-69
2022/07/10 00:39:12;;;;;;;0.50;0.50;;;12.00;99.90;;;;;;5034081;28;20241;-69
2022/07/10 00:41:38;;;;;;;0.50;0.50;;;11.90;99.90;;;;;;5034854;28;20571;-69
2022/07/10 00:44:04;;;;;;;0.60;0.60;;;11.80;99.90;;;;;;5035079;28;20283;-68
2022/07/10 00:46:31;;;;;;;0.55;0.55;;;11.80;99.90;;;;;;5035306;28;20542;-69
2022/07/10 00:48:57;;;;;;;0.50;0.50;;;11.90;99.90;;;;;;5034647;28;20621;-69
2022/07/10 00:51:29;;;;;;;0.50;0.50;;;11.90;99.90;;;;;;5034983;28;20198;-69
2022/07/10 00:53:56;;;;;;;0.60;0.60;;;11.70;99.90;;;;;;5035180;28;20191;-68
2022/07/10 00:56:24;;;;;;;0.50;0.50;;;11.80;99.90;;;;;;5034210;28;20213;-69
2022/07/10 00:58:50;;;;;;;0.45;0.45;;;11.60;99.90;;;;;;5034285;28;20217;-68
2022/07/10 01:01:18;;;;;;;0.60;0.60;;;11.50;99.90;;;;;;5034075;28;20254;-67
2022/07/10 01:03:45;;;;;;;0.50;0.50;;;11.50;99.90;;;;;;5034313;28;20190;-67
2022/07/10 01:06:12;;;;;;;0.50;0.50;;;11.40;99.90;;;;;;5043361;28;20204;-67
2022/07/10 01:08:37;;;;;;;0.50;0.50;;;11.40;99.90;;;;;;5054006;28;20272;-70
2022/07/10 01:11:04;;;;;;;0.57;0.57;;;11.40;99.90;;;;;;5054340;28;20268;-67
2022/07/10 01:13:29;;;;;;;0.50;0.50;;;11.50;99.90;;;;;;5053820;28;20239;-67
2022/07/10 01:15:55;;;;;;;0.50;0.50;;;11.50;99.90;;;;;;5054340;28;20668;-70
2022/07/10 01:18:22;;;;;;;0.50;0.50;;;11.50;99.90;;;;;;5036483;28;20247;-72
2022/07/10 01:20:52;;;;;;;0.60;0.60;;;11.50;99.90;;;;;;5054627;28;20220;-68
2022/07/10 01:23:17;;;;;;;0.55;0.55;;;11.50;99.90;;;;;;5053802;28;20260;-67
2022/07/10 01:25:43;;;;;;;0.50;0.50;;;11.50;99.90;;;;;;5036420;28;20644;-67
2022/07/10 01:28:09;;;;;;;0.60;0.60;;;11.50;99.90;;;;;;5054239;28;20190;-67
2022/07/10 01:30:35;;;;;;;0.50;0.50;;;11.50;99.90;;;;;;5036304;28;20201;-67
2022/07/10 01:33:01;;;;;;;0.40;0.40;;;11.50;99.90;;;;;;5054030;28;20275;-67
2022/07/10 01:35:27;;;;;;;0.50;0.50;;;11.40;99.90;;;;;;5053910;28;20284;-68
2022/07/10 01:37:52;;;;;;;0.60;0.60;;;11.30;99.90;;;;;;5036092;28;20205;-67
2022/07/10 01:40:18;;;;;;;0.50;0.50;;;11.20;99.90;;;;;;5053595;28;20278;-67
2022/07/10 01:42:45;;;;;;;0.50;0.50;;;11.10;99.90;;;;;;5053036;28;20277;-66
2022/07/10 01:45:11;;;;;;;0.60;0.60;;;11.10;99.90;;;;;;5035869;28;20193;-66
2022/07/10 01:47:37;;;;;;;0.50;0.50;;;11.00;99.90;;;;;;5053379;28;20186;-66
2022/07/10 01:50:04;;;;;;;0.60;0.60;;;10.90;99.90;;;;;;5053591;28;20216;-66
2022/07/10 01:52:30;;;;;;;0.50;0.50;;;11.00;99.90;;;;;;5017324;28;20584;-66
2022/07/10 01:54:56;;;;;;;0.60;0.60;;;11.00;99.90;;;;;;5041053;28;20193;-67
2022/07/10 01:57:22;;;;;;;0.50;0.50;;;11.00;99.90;;;;;;5053715;28;20280;-66
2022/07/10 01:59:47;;;;;;;0.50;0.50;;;11.00;99.90;;;;;;5053485;28;20193;-66
2022/07/10 02:02:13;;;;;;;0.70;0.70;;;10.90;99.90;;;;;;5051167;28;20212;-66
2022/07/10 02:04:41;;;;;;;0.50;0.50;;;10.90;99.90;;;;;;5053245;28;20201;-66
2022/07/10 02:07:16;;;;;;;0.60;0.60;;;11.00;99.90;;;;;;5032185;28;20229;-66
2022/07/10 02:09:42;;;;;;;0.50;0.50;;;11.00;99.90;;;;;;5037833;28;20193;-66
2022/07/10 02:12:09;;;;;;;0.50;0.50;;;10.90;99.90;;;;;;5053227;28;20194;-66
2022/07/10 02:14:36;;;;;;;0.60;0.60;;;10.90;99.90;;;;;;5052704;28;20201;-66
2022/07/10 02:17:03;;;;;;;0.57;0.57;;;10.90;99.90;;;;;;5053317;28;20202;-66
2022/07/10 02:19:29;;;;;;;0.50;0.50;;;10.90;99.90;;;;;;5035002;28;20233;-66
2022/07/10 02:21:55;;;;;;;0.60;0.60;;;11.00;99.90;;;;;;5052843;28;20646;-66
2022/07/10 02:24:21;;;;;;;0.50;0.50;;;11.00;99.90;;;;;;5052921;28;20194;-66
2022/07/10 02:26:46;;;;;;;0.60;0.60;;;11.10;99.90;;;;;;5053020;28;20200;-66
2022/07/10 02:29:12;;;;;;;0.50;0.50;;;11.20;99.90;;;;;;5053218;28;20596;-66
2022/07/10 02:31:41;;;;;;;0.50;0.50;;;11.10;99.90;;;;;;5052627;28;20200;-66
2022/07/10 02:34:07;;;;;;;0.50;0.50;;;11.20;99.90;;;;;;5052937;28;20193;-66
2022/07/10 02:36:34;;;;;;;0.60;0.60;;;11.20;99.90;;;;;;5052491;28;20185;-66
2022/07/10 02:38:59;;;;;;;0.60;0.60;;;11.20;99.90;;;;;;5052614;28;20675;-66
2022/07/10 02:41:25;;;;;;;0.50;0.50;;;11.20;99.90;;;;;;5052203;28;20193;-66
2022/07/10 02:43:51;;;;;;;0.50;0.50;;;11.30;99.90;;;;;;5052422;28;20189;-69
2022/07/10 02:46:17;;;;;;;0.50;0.50;;;11.40;99.90;;;;;;5052603;28;20215;-68
2022/07/10 02:48:42;;;;;;;0.50;0.50;;;11.40;99.90;;;;;;5016442;28;20295;-68
2022/07/10 02:51:08;;;;;;;0.60;0.60;;;11.50;99.90;;;;;;5038984;28;20275;-68
2022/07/10 02:53:34;;;;;;;0.50;0.50;;;11.50;99.90;;;;;;5052388;28;20189;-67
2022/07/10 02:56:00;;;;;;;0.50;0.50;;;11.60;99.90;;;;;;5052332;28;20260;-69
2022/07/10 02:58:25;;;;;;;0.50;0.50;;;11.70;99.90;;;;;;5052211;28;20190;-69
2022/07/10 03:00:51;;;;;;;0.50;0.50;;;11.70;99.90;;;;;;5051564;28;20209;-69
2022/07/10 03:03:17;;;;;;;0.50;0.50;;;11.70;99.90;;;;;;5040371;28;20205;-68
2022/07/10 03:05:46;;;;;;;0.70;0.70;;;11.70;99.90;;;;;;5052187;28;20656;-67
2022/07/10 03:08:12;;;;;;;0.45;0.45;;;11.70;99.90;;;;;;5034609;28;20200;-68
2022/07/10 03:10:38;;;;;;;0.65;0.65;;;11.70;99.90;;;;;;5051953;28;20197;-69
2022/07/10 03:13:04;;;;;;;0.50;0.50;;;11.70;99.90;;;;;;5052468;28;20197;-68
2022/07/10 03:15:30;;;;;;;0.40;0.40;;;11.70;99.90;;;;;;5052306;28;20551;-67
2022/07/10 03:17:56;;;;;;;0.50;0.50;;;11.70;99.90;;;;;;5052616;28;20592;-68
2022/07/10 03:20:21;;;;;;;0.50;0.50;;;11.60;99.90;;;;;;5052484;28;20221;-68
2022/07/10 03:22:47;;;;;;;0.50;0.50;;;11.60;99.90;;;;;;5035476;28;20702;-67
2022/07/10 03:25:13;;;;;;;0.50;0.50;;;11.60;99.90;;;;;;5032209;28;20200;-68
2022/07/10 03:27:39;;;;;;;0.43;0.43;;;11.60;99.90;;;;;;5031911;28;20228;-67
2022/07/10 03:30:06;;;;;;;0.50;0.50;;;11.60;99.90;;;;;;5013841;28;20691;-67
2022/07/10 03:32:32;;;;;;;0.50;0.50;;;11.60;99.90;;;;;;5032416;28;20190;-68
2022/07/10 03:34:58;;;;;;;0.50;0.50;;;11.60;99.90;;;;;;5032142;28;20202;-68
2022/07/10 03:37:24;;;;;;;0.50;0.50;;;11.60;99.90;;;;;;5031843;28;20198;-67
2022/07/10 03:39:50;;;;;;;0.50;0.50;;;11.60;99.90;;;;;;5014355;28;20563;-69
2022/07/10 03:42:15;;;;;;;0.50;0.50;;;11.60;99.90;;;;;;5031711;28;20198;-69
2022/07/10 03:44:41;;;;;;;0.50;0.50;;;11.70;99.90;;;;;;5047329;28;20224;-68
2022/07/10 03:47:07;;;;;;;0.50;0.50;;;11.70;99.90;;;;;;5046583;28;20206;-67
2022/07/10 03:49:32;;;;;;;0.40;0.40;;;11.80;99.90;;;;;;5031788;28;20680;-67
2022/07/10 03:52:02;;;;;;;0.40;0.40;;;11.80;99.90;;;;;;5031993;28;20201;-67
2022/07/10 03:54:29;;;;;;;0.47;0.47;;;11.90;99.90;;;;;;5031697;28;20205;-67
2022/07/10 03:59:40;;;;;;;0.45;0.45;;;12.00;99.90;;;;;;5032349;28;20344;-68
2022/07/10 04:02:06;;;;;;;0.50;0.50;;;12.00;99.90;;;;;;5031850;28;20206;-68
2022/07/10 04:04:32;;;;;;;0.40;0.40;;;12.00;99.90;;;;;;5031858;28;20558;-67
2022/07/10 04:06:58;;;;;;;0.50;0.50;;;12.00;99.90;;;;;;5025657;28;20202;-67
2022/07/10 04:09:24;;;;;;;0.50;0.50;;;12.10;99.90;;;;;;5031696;28;20195;-68
2022/07/10 04:11:50;;;;;;;0.40;0.40;;;12.20;99.90;;;;;;5033910;28;20204;-67
2022/07/10 04:14:15;;;;;;;0.50;0.50;;;12.20;99.90;;;;;;5053820;28;20189;-68
2022/07/10 04:16:41;;;;;;;0.43;0.43;;;12.30;99.90;;;;;;5054590;28;20660;-68
2022/07/10 04:19:07;;;;;;;0.50;0.50;;;12.50;99.90;;;;;;5037094;28;20198;-69
2022/07/10 04:21:32;;;;;;;0.45;0.45;;;12.60;99.90;;;;;;5035300;28;20302;-67
2022/07/10 04:23:58;;;;;;;0.40;0.40;;;12.70;99.90;;;;;;5035184;28;20495;-69
2022/07/10 04:26:24;;;;;;;0.50;0.50;;;12.80;99.90;;;;;;5035547;28;20440;-69
2022/07/10 04:28:49;;;;;;;0.40;0.40;;;12.90;99.90;;;;;;5035872;28;20190;-68
2022/07/10 04:31:15;;;;;;;0.50;0.50;;;13.00;99.90;;;;;;5035001;28;20222;-67
2022/07/10 04:33:41;;;;;;;0.40;0.40;;;13.10;99.90;;;;;;5035036;28;20194;-67
2022/07/10 04:36:07;;;;;;;0.40;0.40;;;13.20;99.90;;;;;;5034945;28;20732;-69
2022/07/10 04:38:33;;;;;;;0.50;0.50;;;13.30;99.90;;;;;;5034869;28;20620;-68
2022/07/10 04:40:59;;;;;;;0.50;0.50;;;13.40;99.90;;;;;;5034727;28;20568;-69
2022/07/10 04:43:25;;;;;;;0.50;0.50;;;13.50;99.90;;;;;;5034651;28;20635;-68
2022/07/10 04:45:51;;;;;;;0.47;0.47;;;13.60;99.90;;;;;;5035020;28;20697;-68
2022/07/10 04:48:17;;;;;;;0.40;0.40;;;13.60;99.90;;;;;;5035373;28;20289;-68
2022/07/10 04:50:42;;;;;;;0.40;0.40;;;13.70;99.90;;;;;;5017482;28;20202;-68
2022/07/10 04:53:08;;;;;;;0.60;0.60;;;13.70;99.90;;;;;;5034292;28;20252;-67
2022/07/10 04:55:34;;;;;;;0.40;0.40;;;13.80;99.90;;;;;;5034900;28;20674;-68
2022/07/10 04:58:00;;;;;;;0.40;0.40;;;13.80;99.90;;;;;;5034791;28;20186;-68
2022/07/10 05:00:26;;;;;;;0.40;0.40;;;13.80;99.90;;;;;;5034351;28;20194;-67
2022/07/10 05:02:51;;;;;;;0.40;0.40;;;13.90;99.90;;;;;;5034837;28;20443;-67
2022/07/10 05:05:17;;;;;;;0.38;0.38;;;13.90;99.90;;;;;;5035643;28;20229;-68
2022/07/10 05:07:43;;;;;;;0.40;0.40;;;14.00;99.90;;;;;;5036772;28;20601;-68
2022/07/10 05:10:09;;;;;;;0.40;0.40;;;14.10;99.90;;;;;;5054379;28;20235;-67
2022/07/10 05:12:35;;;;;;;0.40;0.40;;;14.10;99.90;;;;;;5054362;28;20198;-68
2022/07/10 05:15:01;;;;;;;0.40;0.40;;;14.10;99.90;;;;;;5039313;28;20206;-67
2022/07/10 05:17:31;;;;;;;0.40;0.40;;;14.00;99.90;;;;;;5034275;28;20233;-68
2022/07/10 05:19:57;;;;;;;0.40;0.40;;;13.80;99.90;;;;;;5016668;28;20190;-69
2022/07/10 05:22:24;;;;;;;0.40;0.40;;;13.70;99.90;;;;;;5033832;28;20233;-67
2022/07/10 05:24:50;;;;;;;0.50;0.50;;;13.70;99.90;;;;;;5034284;28;20835;-67
2022/07/10 05:27:19;;;;;;;0.40;0.40;;;13.90;99.90;;;;;;5034168;28;20333;-68
2022/07/10 05:29:46;;;;;;;0.40;0.40;;;13.80;99.90;;;;;;5034227;28;20197;-69
2022/07/10 05:32:12;;;;;;;0.40;0.40;;;13.80;99.90;;;;;;5034086;28;20271;-69
2022/07/10 05:34:37;;;;;;;0.40;0.40;;;13.70;99.90;;;;;;5033181;28;20322;-68
2022/07/10 05:37:03;;;;;;;0.40;0.40;;;13.80;99.90;;;;;;5033581;28;20222;-68
2022/07/10 05:39:29;;;;;;;0.40;0.40;;;13.90;99.90;;;;;;5033909;28;20206;-67
2022/07/10 05:41:57;;;;;;;0.40;0.40;;;14.10;99.90;;;;;;5034014;28;20221;-68
2022/07/10 05:44:23;;;;;;;0.40;0.40;;;14.40;99.90;;;;;;5033566;28;20213;-68
2022/07/10 05:46:49;;;;;;;0.40;0.40;;;14.70;99.90;;;;;;5033732;28;20198;-68
2022/07/10 05:49:15;;;;;;;0.40;0.40;;;14.80;99.90;;;;;;5033729;28;20198;-68
2022/07/10 05:51:41;;;;;;;0.40;0.40;;;14.90;99.90;;;;;;5034105;28;20202;-68
2022/07/10 05:54:07;;;;;;;0.40;0.40;;;15.00;99.90;;;;;;5033699;28;20213;-68
2022/07/10 05:56:32;;;;;;;0.40;0.40;;;15.10;99.90;;;;;;5033673;28;20190;-68
2022/07/10 05:58:58;;;;;;;0.40;0.40;;;15.20;99.90;;;;;;5033192;28;20194;-68
2022/07/10 06:01:25;;;;;;;0.40;0.40;;;15.30;99.90;;;;;;5033598;28;20592;-68
2022/07/10 06:03:51;;;;;;;0.30;0.30;;;15.40;99.90;;;;;;5043816;28;20194;-67
2022/07/10 06:06:17;;;;;;;0.30;0.30;;;15.40;99.90;;;;;;5026167;28;20205;-68
2022/07/10 06:08:44;;;;;;;0.30;0.30;;;15.60;99.90;;;;;;5033866;28;20190;-68
2022/07/10 06:11:10;;;;;;;0.40;0.40;;;15.60;99.90;;;;;;5047509;28;20200;-68
2022/07/10 06:13:36;;;;;;;0.30;0.30;;;15.70;99.90;;;;;;5034562;28;20639;-68
2022/07/10 06:16:03;;;;;;;0.40;0.40;;;15.70;99.90;;;;;;5053461;28;20197;-66
2022/07/10 06:18:29;;;;;;;0.30;0.30;;;15.90;99.90;;;;;;5053205;28;20681;-66
2022/07/10 06:20:55;;;;;;;0.30;0.30;;;15.90;99.90;;;;;;5053168;28;20239;-68
2022/07/10 06:23:21;;;;;;;0.30;0.30;;;15.90;99.90;;;;;;5052640;28;20213;-68
2022/07/10 06:25:49;;;;;;;0.30;0.30;;;16.00;99.90;;;;;;5053117;28;20280;-67
2022/07/10 06:28:15;;;;;;;0.60;0.60;;;15.90;99.90;;;;;;5034944;28;20204;-67
2022/07/10 06:30:41;;;;;;;0.30;0.30;;;15.90;99.90;;;;;;5052387;28;20632;-67
2022/07/10 06:33:06;;;;;;;0.30;0.30;;;15.90;99.90;;;;;;5052271;28;20277;-68
2022/07/10 06:35:32;;;;;;;0.35;0.35;;;16.00;99.90;;;;;;5049543;28;20224;-67
2022/07/10 06:37:58;;;;;;;0.30;0.30;;;16.20;99.90;;;;;;5032081;28;20201;-67
2022/07/10 06:40:24;;;;;;;0.50;0.50;;;16.30;99.90;;;;;;5032499;28;20208;-67
2022/07/10 06:42:50;;;;;;;0.50;0.50;;;16.40;99.90;;;;;;5014187;28;20264;-67
2022/07/10 06:45:16;;;;;;;0.30;0.30;;;16.50;99.90;;;;;;5031857;28;20190;-68
2022/07/10 06:47:57;;;;;;;0.38;0.38;;;16.60;99.90;;;;;;5014647;28;20268;-67
2022/07/10 06:50:32;;;;;;;0.30;0.30;;;16.60;99.90;;;;;;5032453;28;20190;-67
2022/07/10 06:52:58;;;;;;;0.40;0.40;;;16.60;99.90;;;;;;5032348;28;20189;-67
2022/07/10 06:55:25;;;;;;;0.75;0.75;;;16.70;99.90;;;;;;5032154;28;20198;-68
2022/07/10 06:57:50;;;;;;;0.30;0.30;;;16.80;99.90;;;;;;5032193;28;20197;-68
2022/07/10 07:00:16;;;;;;;0.30;0.30;;;16.90;99.90;;;;;;5014150;28;20693;-67
2022/07/10 07:02:42;;;;;;;0.30;0.30;;;17.00;99.90;;;;;;5032497;28;20210;-67
2022/07/10 07:05:08;;;;;;;0.30;0.30;;;16.60;99.90;;;;;;5032108;28;20220;-69
2022/07/10 07:07:35;;;;;;;0.68;0.50;;;16.40;99.90;;;;;;5018595;28;20579;-67
2022/07/10 07:10:02;;;;;;;0.32;0.32;;;15.90;99.90;;;;;;5032670;28;20260;-68
2022/07/10 07:12:28;;;;;;;0.30;0.30;;;15.60;99.90;;;;;;5014411;28;20202;-67
2022/07/10 07:14:53;;;;;;;0.30;0.30;;;15.40;99.90;;;;;;5032279;28;20244;-68
2022/07/10 07:17:23;;;;;;;0.30;0.30;;;15.20;99.90;;;;;;5014471;28;20362;-68
2022/07/10 07:25:17;;;;;;;0.32;0.32;;;15.10;99.90;;;;;;5031908;28;20711;-69
2022/07/10 07:27:43;;;;;;;0.40;0.40;;;15.20;99.90;;;;;;5032705;28;20204;-67
2022/07/10 07:30:11;;;;;;;0.35;0.35;;;15.30;99.90;;;;;;5032218;28;20248;-67
2022/07/10 07:32:38;;;;;;;0.40;0.40;;;15.50;99.90;;;;;;5031912;28;20206;-67
2022/07/10 07:35:05;;;;;;;0.30;0.30;;;15.50;99.90;;;;;;5032206;28;20222;-67
2022/07/10 07:37:42;;;;;;;0.40;0.40;;;15.60;99.90;;;;;;5013908;28;20198;-68
2022/07/10 07:40:13;;;;;;;0.40;0.40;;;15.80;99.90;;;;;;5031637;28;20190;-67
2022/07/10 07:42:40;;;;;;;0.40;0.40;;;15.90;99.90;;;;;;5031571;28;20202;-67
2022/07/10 07:45:07;;;;;;;0.30;0.30;;;16.20;99.90;;;;;;5031705;28;20197;-67
2022/07/10 07:47:47;;;;;;;0.30;0.30;;;16.60;99.90;;;;;;5033585;28;20277;-66
2022/07/10 07:50:18;;;;;;;0.98;0.45;;;16.60;99.90;;;;;;5036582;28;20198;-67
2022/07/10 07:52:45;;;;;;;0.30;0.30;;;16.30;99.90;;;;;;5018267;28;20293;-67
2022/07/10 07:55:12;;;;;;;0.40;0.40;;;16.10;99.90;;;;;;5018739;28;20222;-68
2022/07/10 07:57:38;;;;;;;0.35;0.35;;;16.30;99.90;;;;;;5055540;28;20211;-67
2022/07/10 08:00:07;;;;;;;0.30;0.30;;;16.80;99.90;;;;;;5056066;28;20217;-68
2022/07/10 08:02:33;;;;;;;0.30;0.30;;;17.30;99.90;;;;;;5054834;28;20209;-67
2022/07/10 08:04:58;;;;;;;0.30;0.30;;;17.30;99.90;;;;;;5055643;28;20194;-68
2022/07/10 08:07:46;;;;;;;0.30;0.30;;;17.40;99.90;;;;;;5034027;28;20191;-67
2022/07/10 08:10:14;;;;;;;0.30;0.30;;;17.80;99.90;;;;;;5018049;28;20629;-67
2022/07/10 08:12:41;;;;;;;0.40;0.40;;;17.70;99.90;;;;;;5017950;28;20210;-67
2022/07/10 08:15:11;;;;;;;0.30;0.30;;;17.60;99.90;;;;;;5035366;28;20248;-67
2022/07/10 08:17:38;;;;;;;0.40;0.40;;;17.60;99.90;;;;;;5035480;28;20665;-68
2022/07/10 08:20:05;;;;;;;0.30;0.30;;;17.50;99.90;;;;;;5017810;28;20740;-67
2022/07/10 08:22:31;;;;;;;0.30;0.30;;;17.40;99.90;;;;;;5034886;28;20210;-67
2022/07/10 08:24:57;;;;;;;0.38;0.38;;;17.40;99.90;;;;;;5034961;28;20194;-67
2022/07/10 08:27:24;;;;;;;0.45;0.45;;;17.10;99.90;;;;;;5035241;28;20272;-66
2022/07/10 08:29:50;;;;;;;0.20;0.20;;;16.90;99.90;;;;;;5035222;28;20202;-66
2022/07/10 08:32:16;;;;;;;0.30;0.30;;;16.80;99.90;;;;;;5035145;28;20198;-67
2022/07/10 08:34:42;;;;;;;0.30;0.30;;;16.70;99.90;;;;;;5035102;28;20194;-66
2022/07/10 08:37:08;;;;;;;0.28;0.28;;;16.60;99.90;;;;;;5034979;28;20252;-68
2022/07/10 08:39:34;;;;;;;0.32;0.32;;;16.60;99.90;;;;;;5034965;28;20190;-67
2022/07/10 08:42:00;;;;;;;0.30;0.30;;;16.50;99.90;;;;;;5017423;28;20230;-67
2022/07/10 08:44:28;;;;;;;0.30;0.30;;;16.50;99.90;;;;;;5034929;28;20174;-67
2022/07/10 08:46:54;;;;;;;0.30;0.30;;;16.50;99.90;;;;;;5035035;28;20289;-67
2022/07/10 08:49:23;;;;;;;0.30;0.30;;;16.60;99.90;;;;;;5034686;28;20695;-67
2022/07/10 08:51:56;;;;;;;0.25;0.25;;;16.90;99.90;;;;;;5037758;28;20676;-68
2022/07/10 08:54:23;;;;;;;0.30;0.30;;;17.30;99.90;;;;;;5054007;28;20201;-67
2022/07/10 08:56:50;;;;;;;0.20;0.20;;;17.70;99.90;;;;;;5036701;28;20205;-68
2022/07/10 08:59:18;;;;;;;0.30;0.30;;;18.00;99.90;;;;;;5053484;28;20331;-67
2022/07/10 09:01:43;;;;;;;0.30;0.30;;;18.60;99.90;;;;;;5055436;28;20536;-67
2022/07/10 09:04:18;;;;;;;0.95;0.85;;;18.90;99.90;;;;;;5036636;28;20190;-67
2022/07/10 09:06:44;;;;;;;0.22;0.22;;;19.50;99.90;;;;;;5041632;28;20633;-67
2022/07/10 09:09:11;;;;;;;0.30;0.30;;;19.40;99.90;;;;;;5017071;28;20198;-67
2022/07/10 09:11:42;;;;;;;0.20;0.20;;;19.10;99.90;;;;;;5034356;28;20668;-67
2022/07/10 09:14:11;;;;;;;0.30;0.30;;;18.60;99.90;;;;;;5034450;28;20190;-68
2022/07/10 09:16:41;;;;;;;0.30;0.30;;;18.20;99.90;;;;;;5034274;28;20194;-67
2022/07/10 09:19:23;;;;;;;0.30;0.30;;;17.90;99.90;;;;;;5034577;28;20186;-68
2022/07/10 09:21:54;;;;;;;0.30;0.30;;;17.80;99.90;;;;;;5046428;28;20221;-67
2022/07/10 09:24:21;;;;;;;0.30;0.30;;;17.70;99.90;;;;;;5051515;28;20201;-68
2022/07/10 09:26:56;;;;;;;0.30;0.30;;;17.70;99.90;;;;;;5016396;28;20222;-67
2022/07/10 09:29:21;;;;;;;0.30;0.30;;;17.70;99.90;;;;;;5033626;28;20190;-68
2022/07/10 09:31:58;;;;;;;0.20;0.20;;;17.70;99.90;;;;;;5016523;28;20321;-68
2022/07/10 09:34:37;;;;;;;0.30;0.30;;;18.00;99.90;;;;;;5015731;28;20248;-68
2022/07/10 09:37:18;;;;;;;0.30;0.30;;;18.50;99.90;;;;;;5033875;28;20201;-67
2022/07/10 09:39:54;;;;;;;0.20;0.20;;;19.10;99.90;;;;;;5033708;28;20519;-68
2022/07/10 09:42:26;;;;;;;0.30;0.30;;;19.10;99.90;;;;;;5015543;28;20213;-67
2022/07/10 09:45:18;;;;;;;0.20;0.20;;;19.10;99.90;;;;;;5033683;28;20201;-68
2022/07/10 09:47:44;;;;;;;0.88;0.85;;;18.80;99.90;;;;;;5033707;28;20285;-67
2022/07/10 09:50:29;;;;;;;0.52;0.35;;;18.30;99.90;;;;;;5033035;28;20755;-67
2022/07/10 09:52:59;;;;;;;0.30;0.30;;;18.00;99.90;;;;;;5033399;28;20208;-67
2022/07/10 09:55:29;;;;;;;0.40;0.40;;;17.90;99.90;;;;;;5041335;28;20294;-67
2022/07/10 09:57:56;;;;;;;0.30;0.30;;;18.00;99.90;;;;;;5053744;28;20617;-68
2022/07/10 10:00:26;;;;;;;0.20;0.20;;;18.20;99.90;;;;;;5053305;28;20193;-67
2022/07/10 10:03:06;;;;;;;0.40;0.40;;;18.40;99.90;;;;;;5053371;28;20209;-67
2022/07/10 10:05:44;;;;;;;0.28;0.28;;;18.50;99.90;;;;;;5031723;28;20646;-68
2022/07/10 10:08:25;;;;;;;0.20;0.20;;;18.30;99.90;;;;;;5033669;28;20186;-67
2022/07/10 10:10:51;;;;;;;0.30;0.30;;;18.40;99.90;;;;;;5032068;28;20202;-67
2022/07/10 10:13:23;;;;;;;0.30;0.30;;;18.50;99.90;;;;;;5033508;28;20202;-68
2022/07/10 10:15:51;;;;;;;0.30;0.30;;;18.80;99.90;;;;;;5015456;28;20202;-66
2022/07/10 10:18:19;;;;;;;0.30;0.30;;;19.00;99.90;;;;;;5047568;28;20255;-68
2022/07/10 10:20:49;;;;;;;0.30;0.30;;;19.00;99.90;;;;;;5044331;28;20231;-68
2022/07/10 10:23:20;;;;;;;0.40;0.40;;;19.00;99.90;;;;;;5052844;28;20426;-68
2022/07/10 10:25:56;;;;;;;0.20;0.20;;;19.00;99.90;;;;;;5051584;28;20219;-67
2022/07/10 10:28:24;;;;;;;0.20;0.20;;;19.00;99.90;;;;;;5052927;28;20718;-67
2022/07/10 10:30:59;;;;;;;0.20;0.20;;;18.90;99.90;;;;;;5052612;28;20205;-67
2022/07/10 10:33:44;;;;;;;0.20;0.20;;;18.40;99.90;;;;;;5052594;28;20192;-67
2022/07/10 10:36:14;;;;;;;0.95;0.60;;;18.10;99.90;;;;;;5053038;28;20194;-67
2022/07/10 10:38:48;;;;;;;0.30;0.30;;;17.90;99.90;;;;;;5052704;28;20676;-67
2022/07/10 10:41:22;;;;;;;0.30;0.30;;;17.80;99.90;;;;;;5052898;28;20196;-68
2022/07/10 10:44:07;;;;;;;0.30;0.30;;;17.60;99.90;;;;;;5051167;28;20300;-67
2022/07/10 10:46:33;;;;;;;0.30;0.30;;;17.40;99.90;;;;;;5052614;28;20200;-67
2022/07/10 10:49:06;;;;;;;0.30;0.30;;;17.50;99.90;;;;;;5052270;28;20201;-67
2022/07/10 10:52:01;;;;;;;0.30;0.30;;;17.70;99.90;;;;;;5052478;28;20673;-67
2022/07/10 10:54:47;;;;;;;0.22;0.22;;;17.90;99.90;;;;;;5050809;28;20194;-68
2022/07/10 10:57:15;;;;;;;0.20;0.20;;;18.10;99.90;;;;;;5051149;28;20334;-67
2022/07/10 11:00:00;;;;;;;0.20;0.20;;;18.30;99.90;;;;;;5051896;28;20645;-68
2022/07/10 11:02:28;;;;;;;0.20;0.20;;;18.30;99.90;;;;;;5052078;28;20570;-67
2022/07/10 11:05:18;;;;;;;0.30;0.30;;;18.20;99.90;;;;;;5051144;28;20197;-70
2022/07/10 11:07:53;;;;;;;0.30;0.30;;;18.30;99.90;;;;;;5052459;28;20193;-67
2022/07/10 11:10:59;;;;;;;0.30;0.30;;;18.40;99.90;;;;;;5050618;28;20251;-68
2022/07/10 11:13:29;;;;;;;0.30;0.30;;;18.20;99.90;;;;;;4985387;28;20197;-67
2022/07/10 11:15:57;;;;;;;0.20;0.20;;;18.10;99.90;;;;;;4971400;28;20208;-68
2022/07/10 11:18:25;;;;;;;0.22;0.22;;;18.10;99.90;;;;;;5001276;28;20310;-66
2022/07/10 11:20:55;;;;;;;0.20;0.20;;;18.30;99.90;;;;;;5010177;28;20621;-68
2022/07/10 11:23:51;;;;;;;0.30;0.30;;;18.50;99.90;;;;;;5009250;28;20705;-68
2022/07/10 11:26:38;;;;;;;0.20;0.20;;;18.70;99.90;;;;;;5009863;28;20226;-68
2022/07/10 11:29:06;;;;;;;0.55;0.47;;;18.80;99.90;;;;;;5010152;28;20198;-67
2022/07/10 11:31:37;;;;;;;0.20;0.20;;;18.70;99.90;;;;;;5009732;28;20199;-68
2022/07/10 11:34:04;;;;;;;0.20;0.20;;;18.40;99.90;;;;;;4971121;28;20307;-67
2022/07/10 11:36:31;;;;;;;0.30;0.30;;;18.30;99.90;;;;;;4954599;28;20211;-67
2022/07/10 11:39:01;;;;;;;0.30;0.30;;;18.10;99.90;;;;;;4970654;28;20188;-68
2022/07/10 11:41:28;;;;;;;0.20;0.20;;;18.00;99.90;;;;;;4970578;28;20757;-66
2022/07/10 11:44:02;;;;;;;0.20;0.20;;;17.90;99.90;;;;;;5002842;28;20244;-66
2022/07/10 11:46:33;;;;;;;0.30;0.30;;;17.50;99.90;;;;;;5050333;28;20235;-66
2022/07/10 11:49:04;;;;;;;0.30;0.30;;;17.30;99.90;;;;;;5069092;28;20197;-66
2022/07/10 11:51:32;;;;;;;0.30;0.30;;;17.10;99.90;;;;;;5071524;28;20271;-66
2022/07/10 11:54:10;;;;;;;0.30;0.30;;;16.80;99.90;;;;;;5071683;28;20268;-67
2022/07/10 11:56:40;;;;;;;0.40;0.40;;;16.90;99.90;;;;;;5071565;28;20703;-67
2022/07/10 11:59:10;;;;;;;0.30;0.30;;;17.00;99.90;;;;;;5072071;28;20200;-67
2022/07/10 12:01:45;;;;;;;0.30;0.30;;;17.10;99.90;;;;;;5071894;28;20268;-67
2022/07/10 12:04:12;;;;;;;0.25;0.25;;;17.20;99.90;;;;;;5071419;28;20244;-67
2022/07/10 12:06:39;;;;;;;0.20;0.20;;;17.40;99.90;;;;;;5071248;28;20682;-67
2022/07/10 12:09:11;;;;;;;0.30;0.30;;;17.50;99.90;;;;;;5070462;28;20390;-67
2022/07/10 12:11:37;;;;;;;0.20;0.20;;;17.70;99.90;;;;;;5050779;28;20565;-67
2022/07/10 12:14:18;;;;;;;0.50;0.50;;;18.20;99.90;;;;;;5049808;28;20202;-67
2022/07/10 12:16:47;;;;;;;0.30;0.30;;;19.00;99.90;;;;;;5051864;28;20190;-68
2022/07/10 12:19:18;;;;;;;0.20;0.20;;;19.40;99.90;;;;;;5051151;28;20743;-67
2022/07/10 12:21:46;;;;;;;0.30;0.30;;;19.50;99.90;;;;;;5036852;28;20312;-67
2022/07/10 12:24:13;;;;;;;0.20;0.20;;;19.50;99.90;;;;;;5031677;28;20656;-68
2022/07/10 12:26:41;;;;;;;0.20;0.20;;;19.50;99.90;;;;;;5031747;28;20194;-66
2022/07/10 12:29:18;;;;;;;0.75;0.50;;;19.30;99.90;;;;;;5031596;28;20620;-68
2022/07/10 12:31:45;;;;;;;0.25;0.25;;;18.90;99.90;;;;;;5014581;28;20661;-68
2022/07/10 12:34:11;;;;;;;0.30;0.30;;;18.60;99.90;;;;;;5032060;28;20679;-68
2022/07/10 12:36:51;;;;;;;0.20;0.20;;;18.40;99.90;;;;;;5036930;28;20479;-67
2022/07/10 12:39:21;;;;;;;0.20;0.20;;;18.00;99.90;;;;;;5054841;28;20691;-67
2022/07/10 12:42:06;;;;;;;0.20;0.20;;;17.80;99.90;;;;;;5055025;28;20197;-67
2022/07/10 12:44:39;;;;;;;0.30;0.30;;;17.80;99.90;;;;;;5043858;28;20194;-67
2022/07/10 12:47:14;;;;;;;0.40;0.40;;;17.70;99.90;;;;;;5034713;28;20600;-67
2022/07/10 12:49:52;;;;;;;0.20;0.20;;;17.60;99.90;;;;;;5035288;28;20201;-67
2022/07/10 12:52:40;;;;;;;0.30;0.30;;;17.50;99.90;;;;;;5034353;28;20683;-68
2022/07/10 12:55:13;;;;;;;0.30;0.30;;;17.40;99.90;;;;;;5034811;28;20209;-67
2022/07/10 12:57:56;;;;;;;0.30;0.30;;;17.30;99.90;;;;;;5034723;28;20708;-67
2022/07/10 13:00:34;;;;;;;0.38;0.38;;;17.30;99.90;;;;;;5034374;28;20657;-67
2022/07/10 13:03:04;;;;;;;0.30;0.30;;;17.30;99.90;;;;;;5033766;28;20293;-67